sensor_id;sensor_type;location;lat;lon;timestamp;temperature;humidity
24518;DHT22;12678;51.336;12.406;2023-02-02T00:01:56;4.60;99.90
24518;DHT22;12678;51.336;12.406;2023-02-02T00:04:29;4.60;99.90
24518;DHT22;12678;51.336;12.406;2023-02-02T00:06:55;4.50;99.90
24518;DHT22;12678;51.336;12.406;2023-02-02T00:09:27;4.60;99.90
24518;DHT22;12678;51.336;12.406;2023-02-02T00:11:56;4.60;99.90
24518;DHT22;12678;51.336;12.406;2023-02-02T00:14:22;4.70;99.90
24518;DHT22;12678;51.336;12.406;2023-02-02T00:16:50;4.70;99.90
24518;DHT22;12678;51.336;12.406;2023-02-02T00:19:22;4.70;99.90
24518;DHT22;12678;51.336;12.406;2023-02-02T00:21:49;4.70;99.90
24518;DHT22;12678;51.336;12.406;2023-02-02T00:24:23;4.70;99.90
24518;DHT22;12678;51.336;12.406;2023-02-02T00:26:51;4.70;99.90
24518;DHT22;12678;51.336;12.406;2023-02-02T00:29:22;4.70;99.90
24518;DHT22;12678;51.336;12.406;2023-02-02T00:31:49;4.70;99.90
24518;DHT22;12678;51.336;12.406;2023-02-02T00:34:15;4.80;99.90
24518;DHT22;12678;51.336;12.406;2023-02-02T00:36:42;4.80;99.90
24518;DHT22;12678;51.336;12.406;2023-02-02T00:39:10;4.80;99.90
24518;DHT22;12678;51.336;12.406;2023-02-02T00:41:37;4.90;99.90
24518;DHT22;12678;51.336;12.406;2023-02-02T00:44:03;4.90;99.90
24518;DHT22;12678;51.336;12.406;2023-02-02T00:46:47;4.90;99.90
24518;DHT22;12678;51.336;12.406;2023-02-02T00:49:13;4.90;99.90
24518;DHT22;12678;51.336;12.406;2023-02-02T00:51:38;4.90;99.90
24518;DHT22;12678;51.336;12.406;2023-02-02T00:54:04;4.90;99.90
24518;DHT22;12678;51.336;12.406;2023-02-02T00:56:30;4.90;99.90
24518;DHT22;12678;51.336;12.406;2023-02-02T00:58:55;5.00;99.90
24518;DHT22;12678;51.336;12.406;2023-02-02T01:01:22;5.00;99.90
24518;DHT22;12678;51.336;12.406;2023-02-02T01:03:48;5.00;99.90
24518;DHT22;12678;51.336;12.406;2023-02-02T01:06:14;5.00;99.90
24518;DHT22;12678;51.336;12.406;2023-02-02T01:08:40;5.00;99.90
24518;DHT22;12678;51.336;12.406;2023-02-02T01:11:06;5.00;99.90
24518;DHT22;12678;51.336;12.406;2023-02-02T01:13:32;5.00;99.90
24518;DHT22;12678;51.336;12.406;2023-02-02T01:15:59;5.00;99.90
24518;DHT22;12678;51.336;12.406;2023-02-02T01:18:26;5.00;99.90
24518;DHT22;12678;51.336;12.406;2023-02-02T01:21:03;5.00;99.90
24518;DHT22;12678;51.336;12.406;2023-02-02T01:23:30;5.00;99.90
24518;DHT22;12678;51.336;12.406;2023-02-02T01:25:57;4.90;99.90
24518;DHT22;12678;51.336;12.406;2023-02-02T01:28:24;5.00;99.90
24518;DHT22;12678;51.336;12.406;2023-02-02T01:30:50;5.00;99.90
24518;DHT22;12678;51.336;12.406;2023-02-02T01:33:16;5.00;99.90
24518;DHT22;12678;51.336;12.406;2023-02-02T01:35:50;5.00;99.90
24518;DHT22;12678;51.336;12.406;2023-02-02T01:38:16;5.00;99.90
24518;DHT22;12678;51.336;12.406;2023-02-02T01:40:47;5.00;99.90
24518;DHT22;12678;51.336;12.406;2023-02-02T01:43:48;5.00;99.90
24518;DHT22;12678;51.336;12.406;2023-02-02T01:46:29;5.00;99.90
24518;DHT22;12678;51.336;12.406;2023-02-02T01:49:16;5.00;99.90
24518;DHT22;12678;51.336;12.406;2023-02-02T01:51:51;4.90;99.90
24518;DHT22;12678;51.336;12.406;2023-02-02T01:54:25;4.90;99.90
24518;DHT22;12678;51.336;12.406;2023-02-02T01:56:57;4.90;99.90
24518;DHT22;12678;51.336;12.406;2023-02-02T01:59:25;4.80;99.90
24518;DHT22;12678;51.336;12.406;2023-02-02T02:01:52;4.80;99.90
24518;DHT22;12678;51.336;12.406;2023-02-02T02:04:20;4.80;99.90
24518;DHT22;12678;51.336;12.406;2023-02-02T02:06:47;4.80;99.90
24518;DHT22;12678;51.336;12.406;2023-02-02T02:09:13;4.80;99.90
24518;DHT22;12678;51.336;12.406;2023-02-02T02:11:39;4.80;99.90
24518;DHT22;12678;51.336;12.406;2023-02-02T02:14:09;4.80;99.90
24518;DHT22;12678;51.336;12.406;2023-02-02T02:19:57;4.90;99.90
24518;DHT22;12678;51.336;12.406;2023-02-02T02:26:32;4.90;99.90
24518;DHT22;12678;51.336;12.406;2023-02-02T02:29:23;4.90;99.90
24518;DHT22;12678;51.336;12.406;2023-02-02T02:37:37;5.00;99.90
24518;DHT22;12678;51.336;12.406;2023-02-02T02:40:47;5.00;99.90
24518;DHT22;12678;51.336;12.406;2023-02-02T02:43:13;5.00;99.90
24518;DHT22;12678;51.336;12.406;2023-02-02T02:45:40;5.00;99.90
24518;DHT22;12678;51.336;12.406;2023-02-02T02:48:09;5.00;99.90
24518;DHT22;12678;51.336;12.406;2023-02-02T02:50:35;5.00;99.90
24518;DHT22;12678;51.336;12.406;2023-02-02T02:53:14;5.10;99.90
24518;DHT22;12678;51.336;12.406;2023-02-02T02:56:05;5.10;99.90
24518;DHT22;12678;51.336;12.406;2023-02-02T03:01:37;5.20;99.90
24518;DHT22;12678;51.336;12.406;2023-02-02T03:04:16;5.20;99.90
24518;DHT22;12678;51.336;12.406;2023-02-02T03:06:54;5.20;99.90
24518;DHT22;12678;51.336;12.406;2023-02-02T03:09:23;5.30;99.90
24518;DHT22;12678;51.336;12.406;2023-02-02T03:11:50;5.30;99.90
24518;DHT22;12678;51.336;12.406;2023-02-02T03:14:15;5.30;99.90
24518;DHT22;12678;51.336;12.406;2023-02-02T03:16:41;5.30;99.90
24518;DHT22;12678;51.336;12.406;2023-02-02T03:19:07;5.30;99.90
24518;DHT22;12678;51.336;12.406;2023-02-02T03:21:33;5.30;99.90
24518;DHT22;12678;51.336;12.406;2023-02-02T03:23:59;5.30;99.90
24518;DHT22;12678;51.336;12.406;2023-02-02T03:26:26;5.20;99.90
24518;DHT22;12678;51.336;12.406;2023-02-02T03:28:53;5.30;99.90
24518;DHT22;12678;51.336;12.406;2023-02-02T03:31:19;5.30;99.90
24518;DHT22;12678;51.336;12.406;2023-02-02T03:33:45;5.30;99.90
24518;DHT22;12678;51.336;12.406;2023-02-02T03:36:11;5.30;99.90
24518;DHT22;12678;51.336;12.406;2023-02-02T03:38:36;5.30;99.90
24518;DHT22;12678;51.336;12.406;2023-02-02T03:41:04;5.30;99.90
24518;DHT22;12678;51.336;12.406;2023-02-02T03:43:29;5.40;99.90
24518;DHT22;12678;51.336;12.406;2023-02-02T03:46:00;5.40;99.90
24518;DHT22;12678;51.336;12.406;2023-02-02T03:48:27;5.40;99.90
24518;DHT22;12678;51.336;12.406;2023-02-02T03:50:53;5.30;99.90
24518;DHT22;12678;51.336;12.406;2023-02-02T03:53:19;5.40;99.90
24518;DHT22;12678;51.336;12.406;2023-02-02T03:55:44;5.30;99.90
24518;DHT22;12678;51.336;12.406;2023-02-02T03:58:10;5.40;99.90
24518;DHT22;12678;51.336;12.406;2023-02-02T04:00:35;5.40;99.90
24518;DHT22;12678;51.336;12.406;2023-02-02T04:03:01;5.40;99.90
24518;DHT22;12678;51.336;12.406;2023-02-02T04:05:27;5.40;99.90
24518;DHT22;12678;51.336;12.406;2023-02-02T04:07:52;5.40;99.90
24518;DHT22;12678;51.336;12.406;2023-02-02T04:10:18;5.40;99.90
24518;DHT22;12678;51.336;12.406;2023-02-02T04:12:44;5.40;99.90
24518;DHT22;12678;51.336;12.406;2023-02-02T04:15:09;5.40;99.90
24518;DHT22;12678;51.336;12.406;2023-02-02T04:17:35;5.30;99.90
24518;DHT22;12678;51.336;12.406;2023-02-02T04:20:03;5.20;99.90
24518;DHT22;12678;51.336;12.406;2023-02-02T04:22:28;5.20;99.90
24518;DHT22;12678;51.336;12.406;2023-02-02T04:24:54;5.20;99.90
24518;DHT22;12678;51.336;12.406;2023-02-02T04:27:19;5.20;99.90
24518;DHT22;12678;51.336;12.406;2023-02-02T04:29:45;5.20;99.90
24518;DHT22;12678;51.336;12.406;2023-02-02T04:32:13;5.20;99.90
24518;DHT22;12678;51.336;12.406;2023-02-02T04:34:39;5.30;99.90
24518;DHT22;12678;51.336;12.406;2023-02-02T04:37:05;5.30;99.90
24518;DHT22;12678;51.336;12.406;2023-02-02T04:39:31;5.30;99.90
24518;DHT22;12678;51.336;12.406;2023-02-02T04:41:56;5.30;99.90
24518;DHT22;12678;51.336;12.406;2023-02-02T04:44:22;5.30;99.90
24518;DHT22;12678;51.336;12.406;2023-02-02T04:46:47;5.30;99.90
24518;DHT22;12678;51.336;12.406;2023-02-02T04:49:13;5.30;99.90
24518;DHT22;12678;51.336;12.406;2023-02-02T04:51:39;5.30;99.90
24518;DHT22;12678;51.336;12.406;2023-02-02T04:54:06;5.30;99.90
24518;DHT22;12678;51.336;12.406;2023-02-02T04:56:31;5.20;99.90
24518;DHT22;12678;51.336;12.406;2023-02-02T04:58:57;5.20;99.90
24518;DHT22;12678;51.336;12.406;2023-02-02T05:01:23;5.20;99.90
24518;DHT22;12678;51.336;12.406;2023-02-02T05:03:49;5.20;99.90
24518;DHT22;12678;51.336;12.406;2023-02-02T05:06:15;5.20;99.90
24518;DHT22;12678;51.336;12.406;2023-02-02T05:08:42;5.20;99.90
24518;DHT22;12678;51.336;12.406;2023-02-02T05:11:09;5.20;99.90
24518;DHT22;12678;51.336;12.406;2023-02-02T05:13:35;5.20;99.90
24518;DHT22;12678;51.336;12.406;2023-02-02T05:16:01;5.20;99.90
24518;DHT22;12678;51.336;12.406;2023-02-02T05:18:27;5.30;99.90
24518;DHT22;12678;51.336;12.406;2023-02-02T05:20:53;5.30;99.90
24518;DHT22;12678;51.336;12.406;2023-02-02T05:23:19;5.20;99.90
24518;DHT22;12678;51.336;12.406;2023-02-02T05:25:51;5.30;99.90
24518;DHT22;12678;51.336;12.406;2023-02-02T05:28:17;5.20;99.90
24518;DHT22;12678;51.336;12.406;2023-02-02T05:30:43;5.20;99.90
24518;DHT22;12678;51.336;12.406;2023-02-02T05:33:08;5.20;99.90
24518;DHT22;12678;51.336;12.406;2023-02-02T05:35:34;5.20;99.90
24518;DHT22;12678;51.336;12.406;2023-02-02T05:38:00;5.30;99.90
24518;DHT22;12678;51.336;12.406;2023-02-02T05:40:26;5.30;99.90
24518;DHT22;12678;51.336;12.406;2023-02-02T05:42:51;5.30;99.90
24518;DHT22;12678;51.336;12.406;2023-02-02T05:45:17;5.30;99.90
24518;DHT22;12678;51.336;12.406;2023-02-02T05:47:42;5.30;99.90
24518;DHT22;12678;51.336;12.406;2023-02-02T05:50:08;5.30;99.90
24518;DHT22;12678;51.336;12.406;2023-02-02T05:52:35;5.30;99.90
24518;DHT22;12678;51.336;12.406;2023-02-02T05:55:01;5.30;99.90
24518;DHT22;12678;51.336;12.406;2023-02-02T05:57:27;5.30;99.90
24518;DHT22;12678;51.336;12.406;2023-02-02T05:59:53;5.30;99.90
24518;DHT22;12678;51.336;12.406;2023-02-02T06:02:19;5.30;99.90
24518;DHT22;12678;51.336;12.406;2023-02-02T06:04:45;5.30;99.90
24518;DHT22;12678;51.336;12.406;2023-02-02T06:07:10;5.30;99.90
24518;DHT22;12678;51.336;12.406;2023-02-02T06:09:37;5.30;99.90
24518;DHT22;12678;51.336;12.406;2023-02-02T06:12:03;5.30;99.90
24518;DHT22;12678;51.336;12.406;2023-02-02T06:14:28;5.20;99.90
24518;DHT22;12678;51.336;12.406;2023-02-02T06:16:54;5.30;99.90
24518;DHT22;12678;51.336;12.406;2023-02-02T06:19:20;5.20;99.90
24518;DHT22;12678;51.336;12.406;2023-02-02T06:21:45;5.20;99.90
24518;DHT22;12678;51.336;12.406;2023-02-02T06:24:11;5.20;99.90
24518;DHT22;12678;51.336;12.406;2023-02-02T06:26:37;5.10;99.90
24518;DHT22;12678;51.336;12.406;2023-02-02T06:29:02;5.00;99.90
24518;DHT22;12678;51.336;12.406;2023-02-02T06:31:28;5.10;99.90
24518;DHT22;12678;51.336;12.406;2023-02-02T06:33:56;5.10;99.90
24518;DHT22;12678;51.336;12.406;2023-02-02T06:36:23;5.10;99.90
24518;DHT22;12678;51.336;12.406;2023-02-02T06:38:50;5.10;99.90
24518;DHT22;12678;51.336;12.406;2023-02-02T06:41:17;5.10;99.90
24518;DHT22;12678;51.336;12.406;2023-02-02T06:43:43;5.20;99.90
24518;DHT22;12678;51.336;12.406;2023-02-02T06:46:09;5.20;99.90
24518;DHT22;12678;51.336;12.406;2023-02-02T06:48:34;5.20;99.90
24518;DHT22;12678;51.336;12.406;2023-02-02T06:51:00;5.10;99.90
24518;DHT22;12678;51.336;12.406;2023-02-02T06:53:26;5.20;99.90
24518;DHT22;12678;51.336;12.406;2023-02-02T06:55:53;5.20;99.90
24518;DHT22;12678;51.336;12.406;2023-02-02T06:58:19;5.20;99.90
24518;DHT22;12678;51.336;12.406;2023-02-02T07:00:44;5.20;99.90
24518;DHT22;12678;51.336;12.406;2023-02-02T07:03:11;5.30;99.90
24518;DHT22;12678;51.336;12.406;2023-02-02T07:05:36;5.30;99.90
24518;DHT22;12678;51.336;12.406;2023-02-02T07:08:03;5.20;99.90
24518;DHT22;12678;51.336;12.406;2023-02-02T07:10:28;5.30;99.90
24518;DHT22;12678;51.336;12.406;2023-02-02T07:12:54;5.30;99.90
24518;DHT22;12678;51.336;12.406;2023-02-02T07:15:19;5.30;99.90
24518;DHT22;12678;51.336;12.406;2023-02-02T07:17:45;5.30;99.90
24518;DHT22;12678;51.336;12.406;2023-02-02T07:20:11;5.30;99.90
24518;DHT22;12678;51.336;12.406;2023-02-02T07:22:40;5.40;99.90
24518;DHT22;12678;51.336;12.406;2023-02-02T07:25:06;5.40;99.90
24518;DHT22;12678;51.336;12.406;2023-02-02T07:27:32;5.40;99.90
24518;DHT22;12678;51.336;12.406;2023-02-02T07:29:58;5.40;99.90
24518;DHT22;12678;51.336;12.406;2023-02-02T07:32:24;5.40;99.90
24518;DHT22;12678;51.336;12.406;2023-02-02T07:34:49;5.40;99.90
24518;DHT22;12678;51.336;12.406;2023-02-02T07:37:15;5.50;99.90
24518;DHT22;12678;51.336;12.406;2023-02-02T07:39:41;5.50;99.90
24518;DHT22;12678;51.336;12.406;2023-02-02T07:42:10;5.50;99.90
24518;DHT22;12678;51.336;12.406;2023-02-02T07:44:36;5.50;99.90
24518;DHT22;12678;51.336;12.406;2023-02-02T07:47:02;5.60;99.90
24518;DHT22;12678;51.336;12.406;2023-02-02T07:49:28;5.60;99.90
24518;DHT22;12678;51.336;12.406;2023-02-02T07:51:53;5.60;99.90
24518;DHT22;12678;51.336;12.406;2023-02-02T07:54:19;5.60;99.90
24518;DHT22;12678;51.336;12.406;2023-02-02T07:56:45;5.70;99.90
24518;DHT22;12678;51.336;12.406;2023-02-02T07:59:11;5.70;99.90
24518;DHT22;12678;51.336;12.406;2023-02-02T08:01:37;5.70;99.90
24518;DHT22;12678;51.336;12.406;2023-02-02T08:04:02;5.80;99.90
24518;DHT22;12678;51.336;12.406;2023-02-02T08:06:31;5.80;99.90
24518;DHT22;12678;51.336;12.406;2023-02-02T08:08:59;5.90;99.90
24518;DHT22;12678;51.336;12.406;2023-02-02T08:11:25;5.90;99.90
24518;DHT22;12678;51.336;12.406;2023-02-02T08:13:54;6.00;99.90
24518;DHT22;12678;51.336;12.406;2023-02-02T08:16:20;6.00;99.90
24518;DHT22;12678;51.336;12.406;2023-02-02T08:18:46;5.90;99.90
24518;DHT22;12678;51.336;12.406;2023-02-02T08:21:12;5.90;99.90
24518;DHT22;12678;51.336;12.406;2023-02-02T08:23:39;5.90;99.90
24518;DHT22;12678;51.336;12.406;2023-02-02T08:26:14;6.00;99.90
24518;DHT22;12678;51.336;12.406;2023-02-02T08:28:42;6.00;99.90
24518;DHT22;12678;51.336;12.406;2023-02-02T08:31:14;6.10;99.90
24518;DHT22;12678;51.336;12.406;2023-02-02T08:33:41;6.10;99.90
24518;DHT22;12678;51.336;12.406;2023-02-02T08:36:17;6.20;99.90
24518;DHT22;12678;51.336;12.406;2023-02-02T08:38:43;6.10;99.90
24518;DHT22;12678;51.336;12.406;2023-02-02T08:41:11;6.10;99.90
24518;DHT22;12678;51.336;12.406;2023-02-02T08:43:37;6.30;99.90
24518;DHT22;12678;51.336;12.406;2023-02-02T08:46:03;6.30;99.90
24518;DHT22;12678;51.336;12.406;2023-02-02T08:48:29;6.30;99.90
24518;DHT22;12678;51.336;12.406;2023-02-02T08:50:58;6.30;99.90
24518;DHT22;12678;51.336;12.406;2023-02-02T08:53:24;6.30;99.90
24518;DHT22;12678;51.336;12.406;2023-02-02T08:55:57;6.30;99.90
24518;DHT22;12678;51.336;12.406;2023-02-02T08:58:24;6.30;99.90
24518;DHT22;12678;51.336;12.406;2023-02-02T09:00:49;6.30;99.90
24518;DHT22;12678;51.336;12.406;2023-02-02T09:03:15;6.40;99.90
24518;DHT22;12678;51.336;12.406;2023-02-02T09:05:41;6.50;99.90
24518;DHT22;12678;51.336;12.406;2023-02-02T09:08:07;6.60;99.90
24518;DHT22;12678;51.336;12.406;2023-02-02T09:10:36;6.50;99.90
24518;DHT22;12678;51.336;12.406;2023-02-02T09:13:03;6.50;99.90
24518;DHT22;12678;51.336;12.406;2023-02-02T09:15:29;6.60;99.90
24518;DHT22;12678;51.336;12.406;2023-02-02T09:17:55;6.60;99.90
24518;DHT22;12678;51.336;12.406;2023-02-02T09:20:20;6.60;99.90
24518;DHT22;12678;51.336;12.406;2023-02-02T09:22:46;6.70;99.90
24518;DHT22;12678;51.336;12.406;2023-02-02T09:25:12;6.70;99.90
24518;DHT22;12678;51.336;12.406;2023-02-02T09:27:38;6.70;99.90
24518;DHT22;12678;51.336;12.406;2023-02-02T09:30:07;6.80;99.90
24518;DHT22;12678;51.336;12.406;2023-02-02T09:32:33;6.80;99.90
24518;DHT22;12678;51.336;12.406;2023-02-02T09:34:59;6.80;99.90
24518;DHT22;12678;51.336;12.406;2023-02-02T09:37:25;6.90;99.90
24518;DHT22;12678;51.336;12.406;2023-02-02T09:39:51;7.00;99.90
24518;DHT22;12678;51.336;12.406;2023-02-02T09:45:00;7.10;99.90
24518;DHT22;12678;51.336;12.406;2023-02-02T09:47:53;7.10;99.90
24518;DHT22;12678;51.336;12.406;2023-02-02T09:50:39;7.10;99.90
24518;DHT22;12678;51.336;12.406;2023-02-02T09:58:10;7.20;99.90
24518;DHT22;12678;51.336;12.406;2023-02-02T10:00:42;7.20;99.90
24518;DHT22;12678;51.336;12.406;2023-02-02T10:03:18;7.20;99.90
24518;DHT22;12678;51.336;12.406;2023-02-02T10:06:15;7.30;99.90
24518;DHT22;12678;51.336;12.406;2023-02-02T10:08:46;7.30;99.90
24518;DHT22;12678;51.336;12.406;2023-02-02T10:14:03;7.40;99.90
24518;DHT22;12678;51.336;12.406;2023-02-02T10:16:29;7.40;99.90
24518;DHT22;12678;51.336;12.406;2023-02-02T10:24:18;7.40;99.90
24518;DHT22;12678;51.336;12.406;2023-02-02T10:37:47;7.60;99.90
24518;DHT22;12678;51.336;12.406;2023-02-02T10:43:25;7.60;99.90
24518;DHT22;12678;51.336;12.406;2023-02-02T10:46:29;7.60;99.90
24518;DHT22;12678;51.336;12.406;2023-02-02T10:51:39;7.50;99.90
24518;DHT22;12678;51.336;12.406;2023-02-02T10:54:24;7.60;99.90
24518;DHT22;12678;51.336;12.406;2023-02-02T10:56:55;7.50;99.90
24518;DHT22;12678;51.336;12.406;2023-02-02T10:59:32;7.50;99.90
24518;DHT22;12678;51.336;12.406;2023-02-02T11:02:00;7.50;99.90
24518;DHT22;12678;51.336;12.406;2023-02-02T11:04:26;7.50;99.90
24518;DHT22;12678;51.336;12.406;2023-02-02T11:07:11;7.40;99.90
24518;DHT22;12678;51.336;12.406;2023-02-02T11:09:45;7.40;99.90
24518;DHT22;12678;51.336;12.406;2023-02-02T11:12:33;7.40;99.90
24518;DHT22;12678;51.336;12.406;2023-02-02T11:15:06;7.40;99.90
24518;DHT22;12678;51.336;12.406;2023-02-02T11:17:33;7.40;99.90
24518;DHT22;12678;51.336;12.406;2023-02-02T11:20:00;7.40;99.90
24518;DHT22;12678;51.336;12.406;2023-02-02T11:22:36;7.40;99.90
24518;DHT22;12678;51.336;12.406;2023-02-02T11:25:25;7.40;99.90
24518;DHT22;12678;51.336;12.406;2023-02-02T11:27:51;7.50;99.90
24518;DHT22;12678;51.336;12.406;2023-02-02T11:30:29;7.50;99.90
24518;DHT22;12678;51.336;12.406;2023-02-02T11:32:56;7.60;99.90
24518;DHT22;12678;51.336;12.406;2023-02-02T11:35:23;7.60;99.90
24518;DHT22;12678;51.336;12.406;2023-02-02T11:37:54;7.70;99.90
24518;DHT22;12678;51.336;12.406;2023-02-02T11:40:30;7.70;99.90
24518;DHT22;12678;51.336;12.406;2023-02-02T11:42:59;7.70;99.90
24518;DHT22;12678;51.336;12.406;2023-02-02T11:48:13;7.70;99.90
24518;DHT22;12678;51.336;12.406;2023-02-02T11:50:53;7.70;99.90
24518;DHT22;12678;51.336;12.406;2023-02-02T11:53:46;7.70;99.90
24518;DHT22;12678;51.336;12.406;2023-02-02T11:56:21;7.70;99.90
24518;DHT22;12678;51.336;12.406;2023-02-02T11:58:49;7.80;99.90
24518;DHT22;12678;51.336;12.406;2023-02-02T12:03:48;7.80;99.90
24518;DHT22;12678;51.336;12.406;2023-02-02T12:06:19;7.70;99.90
24518;DHT22;12678;51.336;12.406;2023-02-02T12:08:46;7.70;99.90
24518;DHT22;12678;51.336;12.406;2023-02-02T12:11:36;7.60;99.90
24518;DHT22;12678;51.336;12.406;2023-02-02T12:14:20;7.50;99.90
24518;DHT22;12678;51.336;12.406;2023-02-02T12:16:52;7.60;99.90
24518;DHT22;12678;51.336;12.406;2023-02-02T12:19:49;7.50;99.90
24518;DHT22;12678;51.336;12.406;2023-02-02T12:28:04;7.50;99.90
24518;DHT22;12678;51.336;12.406;2023-02-02T12:33:22;7.60;99.90
24518;DHT22;12678;51.336;12.406;2023-02-02T12:57:31;8.20;99.90
24518;DHT22;12678;51.336;12.406;2023-02-02T13:07:43;8.10;99.90
24518;DHT22;12678;51.336;12.406;2023-02-02T13:10:25;7.90;99.90
24518;DHT22;12678;51.336;12.406;2023-02-02T13:15:44;7.90;99.90
24518;DHT22;12678;51.336;12.406;2023-02-02T13:18:25;7.80;99.90
24518;DHT22;12678;51.336;12.406;2023-02-02T13:20:55;7.80;99.90
24518;DHT22;12678;51.336;12.406;2023-02-02T13:23:33;7.80;99.90
24518;DHT22;12678;51.336;12.406;2023-02-02T13:26:06;7.80;99.90
24518;DHT22;12678;51.336;12.406;2023-02-02T13:29:05;7.70;99.90
24518;DHT22;12678;51.336;12.406;2023-02-02T13:34:25;7.70;99.90
24518;DHT22;12678;51.336;12.406;2023-02-02T13:37:17;7.80;99.90
24518;DHT22;12678;51.336;12.406;2023-02-02T13:42:56;7.70;99.90
24518;DHT22;12678;51.336;12.406;2023-02-02T14:02:45;7.40;99.90
24518;DHT22;12678;51.336;12.406;2023-02-02T14:08:21;7.40;99.90
24518;DHT22;12678;51.336;12.406;2023-02-02T14:13:21;7.40;99.90
24518;DHT22;12678;51.336;12.406;2023-02-02T14:18:57;7.40;99.90
24518;DHT22;12678;51.336;12.406;2023-02-02T14:24:01;7.30;99.90
24518;DHT22;12678;51.336;12.406;2023-02-02T14:26:47;7.20;99.90
24518;DHT22;12678;51.336;12.406;2023-02-02T14:32:00;7.20;99.90
24518;DHT22;12678;51.336;12.406;2023-02-02T14:34:41;7.20;99.90
24518;DHT22;12678;51.336;12.406;2023-02-02T14:51:27;7.30;99.90
24518;DHT22;12678;51.336;12.406;2023-02-02T14:54:01;7.30;99.90
24518;DHT22;12678;51.336;12.406;2023-02-02T14:59:38;7.20;99.90
24518;DHT22;12678;51.336;12.406;2023-02-02T15:04:40;7.40;99.90
24518;DHT22;12678;51.336;12.406;2023-02-02T15:09:47;7.30;99.90
24518;DHT22;12678;51.336;12.406;2023-02-02T15:15:05;7.20;99.90
24518;DHT22;12678;51.336;12.406;2023-02-02T15:28:07;7.00;99.90
24518;DHT22;12678;51.336;12.406;2023-02-02T15:30:34;6.90;99.90
24518;DHT22;12678;51.336;12.406;2023-02-02T15:33:06;7.00;99.90
24518;DHT22;12678;51.336;12.406;2023-02-02T15:35:36;7.00;99.90
24518;DHT22;12678;51.336;12.406;2023-02-02T15:38:06;7.00;99.90
24518;DHT22;12678;51.336;12.406;2023-02-02T15:40:37;7.00;99.90
24518;DHT22;12678;51.336;12.406;2023-02-02T15:43:04;7.00;99.90
24518;DHT22;12678;51.336;12.406;2023-02-02T15:45:43;7.00;99.90
24518;DHT22;12678;51.336;12.406;2023-02-02T15:50:48;7.00;99.90
24518;DHT22;12678;51.336;12.406;2023-02-02T15:53:27;7.00;99.90
24518;DHT22;12678;51.336;12.406;2023-02-02T15:55:54;7.00;99.90
24518;DHT22;12678;51.336;12.406;2023-02-02T15:58:32;7.00;99.90
24518;DHT22;12678;51.336;12.406;2023-02-02T16:01:03;6.90;99.90
24518;DHT22;12678;51.336;12.406;2023-02-02T16:03:45;6.80;99.90
24518;DHT22;12678;51.336;12.406;2023-02-02T16:06:12;6.70;99.90
24518;DHT22;12678;51.336;12.406;2023-02-02T16:08:38;6.60;99.90
24518;DHT22;12678;51.336;12.406;2023-02-02T16:11:18;6.60;99.90
24518;DHT22;12678;51.336;12.406;2023-02-02T16:14:03;6.50;99.90
24518;DHT22;12678;51.336;12.406;2023-02-02T16:16:37;6.40;99.90
24518;DHT22;12678;51.336;12.406;2023-02-02T16:21:59;6.30;99.90
24518;DHT22;12678;51.336;12.406;2023-02-02T16:26:57;6.30;99.90
24518;DHT22;12678;51.336;12.406;2023-02-02T16:29:23;6.20;99.90
24518;DHT22;12678;51.336;12.406;2023-02-02T16:31:50;6.10;99.90
24518;DHT22;12678;51.336;12.406;2023-02-02T16:34:17;6.10;99.90
24518;DHT22;12678;51.336;12.406;2023-02-02T16:36:43;6.00;99.90
24518;DHT22;12678;51.336;12.406;2023-02-02T16:39:28;6.10;99.90
24518;DHT22;12678;51.336;12.406;2023-02-02T16:41:53;6.10;99.90
24518;DHT22;12678;51.336;12.406;2023-02-02T16:44:41;6.20;99.90
24518;DHT22;12678;51.336;12.406;2023-02-02T16:52:49;6.20;99.90
24518;DHT22;12678;51.336;12.406;2023-02-02T16:55:17;6.20;99.90
24518;DHT22;12678;51.336;12.406;2023-02-02T16:57:44;6.20;99.90
24518;DHT22;12678;51.336;12.406;2023-02-02T17:00:18;6.20;99.90
24518;DHT22;12678;51.336;12.406;2023-02-02T17:02:47;6.20;99.90
24518;DHT22;12678;51.336;12.406;2023-02-02T17:05:46;6.20;99.90
24518;DHT22;12678;51.336;12.406;2023-02-02T17:08:13;6.20;99.90
24518;DHT22;12678;51.336;12.406;2023-02-02T17:10:42;6.20;99.90
24518;DHT22;12678;51.336;12.406;2023-02-02T17:15:56;6.10;99.90
24518;DHT22;12678;51.336;12.406;2023-02-02T17:18:22;6.10;99.90
24518;DHT22;12678;51.336;12.406;2023-02-02T17:20:49;6.00;99.90
24518;DHT22;12678;51.336;12.406;2023-02-02T17:23:21;6.00;99.90
24518;DHT22;12678;51.336;12.406;2023-02-02T17:25:47;5.90;99.90
24518;DHT22;12678;51.336;12.406;2023-02-02T17:28:16;5.80;99.90
24518;DHT22;12678;51.336;12.406;2023-02-02T17:30:44;5.80;99.90
24518;DHT22;12678;51.336;12.406;2023-02-02T17:33:12;5.80;99.90
24518;DHT22;12678;51.336;12.406;2023-02-02T17:35:42;5.70;99.90
24518;DHT22;12678;51.336;12.406;2023-02-02T17:38:08;5.70;99.90
24518;DHT22;12678;51.336;12.406;2023-02-02T17:40:34;5.70;99.90
24518;DHT22;12678;51.336;12.406;2023-02-02T17:43:00;5.70;99.90
24518;DHT22;12678;51.336;12.406;2023-02-02T17:45:32;5.70;99.90
24518;DHT22;12678;51.336;12.406;2023-02-02T17:47:58;5.60;99.90
24518;DHT22;12678;51.336;12.406;2023-02-02T17:50:25;5.60;99.90
24518;DHT22;12678;51.336;12.406;2023-02-02T17:52:51;5.60;99.90
24518;DHT22;12678;51.336;12.406;2023-02-02T17:55:24;5.60;99.90
24518;DHT22;12678;51.336;12.406;2023-02-02T17:57:51;5.70;99.90
24518;DHT22;12678;51.336;12.406;2023-02-02T18:00:18;5.60;99.90
24518;DHT22;12678;51.336;12.406;2023-02-02T18:02:46;5.60;99.90
24518;DHT22;12678;51.336;12.406;2023-02-02T18:05:12;5.50;99.90
24518;DHT22;12678;51.336;12.406;2023-02-02T18:07:39;5.40;99.90
24518;DHT22;12678;51.336;12.406;2023-02-02T18:10:06;5.50;99.90
24518;DHT22;12678;51.336;12.406;2023-02-02T18:12:32;5.40;99.90
24518;DHT22;12678;51.336;12.406;2023-02-02T18:15:01;5.50;99.90
24518;DHT22;12678;51.336;12.406;2023-02-02T18:17:27;5.40;99.90
24518;DHT22;12678;51.336;12.406;2023-02-02T18:19:53;5.40;99.90
24518;DHT22;12678;51.336;12.406;2023-02-02T18:22:20;5.40;99.90
24518;DHT22;12678;51.336;12.406;2023-02-02T18:24:46;5.40;99.90
24518;DHT22;12678;51.336;12.406;2023-02-02T18:27:12;5.40;99.90
24518;DHT22;12678;51.336;12.406;2023-02-02T18:29:38;5.40;99.90
24518;DHT22;12678;51.336;12.406;2023-02-02T18:32:04;5.40;99.90
24518;DHT22;12678;51.336;12.406;2023-02-02T18:34:39;5.40;99.90
24518;DHT22;12678;51.336;12.406;2023-02-02T18:37:05;5.30;99.90
24518;DHT22;12678;51.336;12.406;2023-02-02T18:39:30;5.30;99.90
24518;DHT22;12678;51.336;12.406;2023-02-02T18:41:57;5.20;99.90
24518;DHT22;12678;51.336;12.406;2023-02-02T18:44:23;5.20;99.90
24518;DHT22;12678;51.336;12.406;2023-02-02T18:46:50;5.20;99.90
24518;DHT22;12678;51.336;12.406;2023-02-02T18:49:16;5.20;99.90